Time;durP1;ratioP1;P1;durP2;ratioP2;P2;SDS_P1;SDS_P2;PMS_P1;PMS_P2;Temp;Humidity;BMP_temperature;BMP_pressure;BME280_temperature;BME280_humidity;BME280_pressure;Samples;Min_cycle;Max_cycle;Signal;HPM_P1;HPM_P2
2021/04/05 00:01:05;;;;;;;;;;;;;;;;;;5048355;28;888;-65
2021/04/05 00:03:31;;;;;;;;;;;;;;;;;;5049065;28;1419;-65
2021/04/05 00:05:56;;;;;;;;;;;;;;;;;;5049077;28;898;-65
2021/04/05 00:08:22;;;;;;;;;;;;;;;;;;5048308;28;1898;-65
2021/04/05 00:10:52;;;;;;;;;;;;;;;;;;5050169;28;866;-65
2021/04/05 00:13:22;;;;;;;;;;;;;;;;;;5049283;28;1210;-64
2021/04/05 00:15:47;;;;;;;;;;;;;;;;;;5049523;28;807;-65
2021/04/05 00:18:14;;;;;;;;;;;;;;;;;;5048587;28;1337;-65
2021/04/05 00:20:42;;;;;;;;;;;;;;;;;;5048688;28;898;-64
2021/04/05 00:23:08;;;;;;;;;;;;;;;;;;5048929;28;1372;-65
2021/04/05 00:25:33;;;;;;;;;;;;;;;;;;5048989;28;902;-65
2021/04/05 00:28:00;;;;;;;;;;;;;;;;;;5048218;28;1918;-65
2021/04/05 00:30:31;;;;;;;;;;;;;;;;;;5048160;28;835;-65
2021/04/05 00:32:56;;;;;;;;;;;;;;;;;;5048240;28;1363;-66
2021/04/05 00:35:24;;;;;;;;;;;;;;;;;;5048470;28;1187;-65
2021/04/05 00:37:50;;;;;;;;;;;;;;;;;;5049106;28;1353;-65
2021/04/05 00:40:16;;;;;;;;;;;;;;;;;;5048915;28;942;-66
2021/04/05 00:42:43;;;;;;;;;;;;;;;;;;5047912;28;1399;-66
2021/04/05 00:45:09;;;;;;;;;;;;;;;;;;5048288;28;937;-64
2021/04/05 00:47:37;;;;;;;;;;;;;;;;;;5047869;28;1930;-65
2021/04/05 00:50:23;;;;;;;;;;;;;;;;;;5048372;28;930;-66
2021/04/05 00:52:52;;;;;;;;;;;;;;;;;;5049759;28;1410;-65
2021/04/05 00:55:18;;;;;;;;;;;;;;;;;;5069435;28;665;-67
2021/04/05 00:57:43;;;;;;;;;;;;;;;;;;5061130;28;2440;-64
2021/04/05 01:00:20;;;;;;;;;;;;;;;;;;5047052;28;1061;-64
2021/04/05 01:02:47;;;;;;;;;;;;;;;;;;5047605;28;1317;-65
2021/04/05 01:05:13;;;;;;;;;;;;;;;;;;5048183;28;1121;-65
2021/04/05 01:07:39;;;;;;;;;;;;;;;;;;5047819;28;1969;-66
2021/04/05 01:10:06;;;;;;;;;;;;;;;;;;5047979;28;816;-67
2021/04/05 01:12:31;;;;;;;;;;;;;;;;;;5047505;28;1443;-66
2021/04/05 01:14:57;;;;;;;;;;;;;;;;;;5048003;28;847;-65
2021/04/05 01:17:22;;;;;;;;;;;;;;;;;;5048049;28;1216;-67
2021/04/05 01:19:48;;;;;;;;;;;;;;;;;;5048495;28;834;-64
2021/04/05 01:22:13;;;;;;;;;;;;;;;;;;5047470;28;1284;-67
2021/04/05 01:24:39;;;;;;;;;;;;;;;;;;5047847;28;921;-66
2021/04/05 01:27:04;;;;;;;;;;;;;;;;;;5047834;28;1977;-66
2021/04/05 01:29:30;;;;;;;;;;;;;;;;;;5049885;28;1455;-67
2021/04/05 01:31:55;;;;;;;;;;;;;;;;;;5045125;28;1558;-66
2021/04/05 01:34:21;;;;;;;;;;;;;;;;;;5047235;28;1363;-68
2021/04/05 01:36:46;;;;;;;;;;;;;;;;;;5047693;28;812;-67
2021/04/05 01:39:12;;;;;;;;;;;;;;;;;;5047360;28;1202;-67
2021/04/05 01:41:37;;;;;;;;;;;;;;;;;;5047757;28;886;-66
2021/04/05 01:44:03;;;;;;;;;;;;;;;;;;5047008;28;1337;-66
2021/04/05 01:46:29;;;;;;;;;;;;;;;;;;5047153;28;823;-68
2021/04/05 01:48:59;;;;;;;;;;;;;;;;;;5046636;28;1957;-65
2021/04/05 01:51:24;;;;;;;;;;;;;;;;;;5047309;28;886;-66
2021/04/05 01:53:50;;;;;;;;;;;;;;;;;;5047619;28;1439;-68
2021/04/05 01:56:17;;;;;;;;;;;;;;;;;;5041454;28;2645;-68
2021/04/05 01:58:44;;;;;;;;;;;;;;;;;;5040961;28;1118;-68
2021/04/05 02:01:11;;;;;;;;;;;;;;;;;;5047020;28;815;-68
2021/04/05 02:03:37;;;;;;;;;;;;;;;;;;5046335;28;1281;-68
2021/04/05 02:06:14;;;;;;;;;;;;;;;;;;5046983;28;895;-68
2021/04/05 02:08:40;;;;;;;;;;;;;;;;;;5046472;28;1893;-69
2021/04/05 02:11:08;;;;;;;;;;;;;;;;;;5046784;28;907;-69
2021/04/05 02:13:33;;;;;;;;;;;;;;;;;;5046587;28;1491;-67
2021/04/05 02:15:59;;;;;;;;;;;;;;;;;;5047466;28;883;-69
2021/04/05 02:18:25;;;;;;;;;;;;;;;;;;5044960;28;1369;-68
2021/04/05 02:20:51;;;;;;;;;;;;;;;;;;5047523;28;918;-70
2021/04/05 02:23:16;;;;;;;;;;;;;;;;;;5047091;28;1438;-69
2021/04/05 02:28:28;;;;;;;;;;;;;;;;;;5046306;28;1983;-65
2021/04/05 02:30:55;;;;;;;;;;;;;;;;;;5046893;28;827;-64
2021/04/05 02:33:20;;;;;;;;;;;;;;;;;;5050671;28;1419;-64
2021/04/05 02:35:46;;;;;;;;;;;;;;;;;;5050289;28;855;-65
2021/04/05 02:38:11;;;;;;;;;;;;;;;;;;5049981;28;1353;-66
2021/04/05 02:40:37;;;;;;;;;;;;;;;;;;5051222;28;882;-65
2021/04/05 02:43:03;;;;;;;;;;;;;;;;;;5050566;28;1375;-64
2021/04/05 02:45:30;;;;;;;;;;;;;;;;;;5051237;28;895;-65
2021/04/05 02:47:56;;;;;;;;;;;;;;;;;;5049468;28;1906;-64
2021/04/05 02:50:23;;;;;;;;;;;;;;;;;;5050667;28;823;-65
2021/04/05 02:52:49;;;;;;;;;;;;;;;;;;5050959;28;1427;-64
2021/04/05 02:55:14;;;;;;;;;;;;;;;;;;5070554;28;808;-64
2021/04/05 02:57:41;;;;;;;;;;;;;;;;;;5063098;28;1426;-64
2021/04/05 03:00:08;;;;;;;;;;;;;;;;;;5050778;28;949;-64
2021/04/05 03:02:34;;;;;;;;;;;;;;;;;;5050652;28;1380;-63
2021/04/05 03:05:00;;;;;;;;;;;;;;;;;;5048490;28;1416;-64
2021/04/05 03:07:26;;;;;;;;;;;;;;;;;;5049090;28;1901;-64
2021/04/05 03:09:52;;;;;;;;;;;;;;;;;;5049719;28;913;-65
2021/04/05 03:12:18;;;;;;;;;;;;;;;;;;5050691;28;826;-66
2021/04/05 03:14:44;;;;;;;;;;;;;;;;;;5049983;28;816;-64
2021/04/05 03:17:09;;;;;;;;;;;;;;;;;;5050131;28;914;-64
2021/04/05 03:19:37;;;;;;;;;;;;;;;;;;5049725;28;815;-64
2021/04/05 03:22:03;;;;;;;;;;;;;;;;;;5050129;28;874;-64
2021/04/05 03:24:29;;;;;;;;;;;;;;;;;;5048919;28;835;-65
2021/04/05 03:26:54;;;;;;;;;;;;;;;;;;5049478;28;1341;-64
2021/04/05 03:29:19;;;;;;;;;;;;;;;;;;5050628;28;2035;-64
2021/04/05 03:31:45;;;;;;;;;;;;;;;;;;5050320;28;902;-64
2021/04/05 03:34:11;;;;;;;;;;;;;;;;;;5049874;28;822;-66
2021/04/05 03:36:54;;;;;;;;;;;;;;;;;;5049685;28;814;-65
2021/04/05 03:39:19;;;;;;;;;;;;;;;;;;5053132;28;1153;-65
2021/04/05 03:42:05;;;;;;;;;;;;;;;;;;5050063;28;887;-65
2021/04/05 03:44:33;;;;;;;;;;;;;;;;;;5047063;28;1087;-65
2021/04/05 03:47:02;;;;;;;;;;;;;;;;;;5049491;28;954;-64
2021/04/05 03:49:36;;;;;;;;;;;;;;;;;;5049435;28;842;-65
2021/04/05 03:52:21;;;;;;;;;;;;;;;;;;5049429;28;870;-65
2021/04/05 03:54:51;;;;;;;;;;;;;;;;;;5065424;28;1492;-65
2021/04/05 03:57:22;;;;;;;;;;;;;;;;;;5064670;28;1348;-64
2021/04/05 03:59:51;;;;;;;;;;;;;;;;;;5050017;28;943;-65
2021/04/05 04:02:21;;;;;;;;;;;;;;;;;;5049391;28;878;-65
2021/04/05 04:05:02;;;;;;;;;;;;;;;;;;5048792;28;823;-65
2021/04/05 04:07:52;;;;;;;;;;;;;;;;;;5049072;28;1910;-65
2021/04/05 04:10:17;;;;;;;;;;;;;;;;;;5048420;28;1310;-64
2021/04/05 04:12:45;;;;;;;;;;;;;;;;;;5048935;28;926;-64
2021/04/05 04:15:11;;;;;;;;;;;;;;;;;;5049322;28;811;-65
2021/04/05 04:17:37;;;;;;;;;;;;;;;;;;5048271;28;1079;-64
2021/04/05 04:20:22;;;;;;;;;;;;;;;;;;5048320;28;894;-64
2021/04/05 04:22:48;;;;;;;;;;;;;;;;;;5049913;28;1007;-65
2021/04/05 04:25:14;;;;;;;;;;;;;;;;;;5048872;28;788;-65
2021/04/05 04:27:42;;;;;;;;;;;;;;;;;;5048356;28;1963;-65
2021/04/05 04:30:07;;;;;;;;;;;;;;;;;;5049192;28;922;-64
2021/04/05 04:32:33;;;;;;;;;;;;;;;;;;5047988;28;839;-64
2021/04/05 04:34:59;;;;;;;;;;;;;;;;;;5048161;28;827;-65
2021/04/05 04:37:25;;;;;;;;;;;;;;;;;;5048059;28;1017;-64
2021/04/05 04:39:50;;;;;;;;;;;;;;;;;;5049356;28;910;-65
2021/04/05 04:42:15;;;;;;;;;;;;;;;;;;5048582;28;831;-65
2021/04/05 04:44:41;;;;;;;;;;;;;;;;;;5048218;28;1249;-64
2021/04/05 04:47:06;;;;;;;;;;;;;;;;;;5048040;28;1902;-64
2021/04/05 04:49:32;;;;;;;;;;;;;;;;;;5047908;28;795;-65
2021/04/05 04:51:57;;;;;;;;;;;;;;;;;;5046591;28;1211;-65
2021/04/05 04:54:23;;;;;;;;;;;;;;;;;;5061661;28;1099;-64
2021/04/05 04:56:48;;;;;;;;;;;;;;;;;;5063983;28;1319;-64
2021/04/05 04:59:14;;;;;;;;;;;;;;;;;;5048017;28;893;-64
2021/04/05 05:01:40;;;;;;;;;;;;;;;;;;5047885;28;818;-65
2021/04/05 05:04:08;;;;;;;;;;;;;;;;;;5048592;28;807;-64
2021/04/05 05:06:34;;;;;;;;;;;;;;;;;;5048268;28;882;-65
2021/04/05 05:09:00;;;;;;;;;;;;;;;;;;5048126;28;1918;-65
2021/04/05 05:11:26;;;;;;;;;;;;;;;;;;5048572;28;878;-67
2021/04/05 05:13:52;;;;;;;;;;;;;;;;;;5048898;28;843;-67
2021/04/05 05:16:18;;;;;;;;;;;;;;;;;;5046159;28;846;-68
2021/04/05 05:18:43;;;;;;;;;;;;;;;;;;5045901;28;891;-65
2021/04/05 05:21:14;;;;;;;;;;;;;;;;;;5047780;28;991;-68
2021/04/05 05:23:41;;;;;;;;;;;;;;;;;;5047401;28;918;-68
2021/04/05 05:26:08;;;;;;;;;;;;;;;;;;5047195;28;1487;-68
2021/04/05 05:28:35;;;;;;;;;;;;;;;;;;5047947;28;1922;-68
2021/04/05 05:31:01;;;;;;;;;;;;;;;;;;5047635;28;859;-69
2021/04/05 05:33:27;;;;;;;;;;;;;;;;;;5047695;28;808;-65
2021/04/05 05:35:53;;;;;;;;;;;;;;;;;;5048065;28;945;-65
2021/04/05 05:38:21;;;;;;;;;;;;;;;;;;5048684;28;823;-65
2021/04/05 05:40:47;;;;;;;;;;;;;;;;;;5047471;28;891;-64
2021/04/05 05:43:15;;;;;;;;;;;;;;;;;;5047443;28;1160;-63
2021/04/05 05:45:55;;;;;;;;;;;;;;;;;;5049713;28;1060;-64
2021/04/05 05:48:24;;;;;;;;;;;;;;;;;;5048163;28;1898;-64
2021/04/05 05:50:49;;;;;;;;;;;;;;;;;;5048362;28;890;-64
2021/04/05 05:53:33;;;;;;;;;;;;;;;;;;5051507;28;1093;-63
2021/04/05 05:56:18;;;;;;;;;;;;;;;;;;5027532;28;835;-64
2021/04/05 05:59:02;;;;;;;;;;;;;;;;;;5026413;28;863;-63
2021/04/05 06:01:46;;;;;;;;;;;;;;;;;;5027163;28;807;-63
2021/04/05 06:04:18;;;;;;;;;;;;;;;;;;5026870;28;799;-62
2021/04/05 06:06:47;;;;;;;;;;;;;;;;;;5026164;28;874;-65
2021/04/05 06:09:18;;;;;;;;;;;;;;;;;;5032398;28;1963;-65
2021/04/05 06:11:50;;;;;;;;;;;;;;;;;;5049878;28;1268;-63
2021/04/05 06:14:34;;;;;;;;;;;;;;;;;;5052521;28;1240;-63
2021/04/05 06:17:18;;;;;;;;;;;;;;;;;;5065478;28;1168;-64
2021/04/05 06:19:47;;;;;;;;;;;;;;;;;;5065939;28;1169;-64
2021/04/05 06:22:31;;;;;;;;;;;;;;;;;;5067197;28;830;-64
2021/04/05 06:25:15;;;;;;;;;;;;;;;;;;5067083;28;887;-66
2021/04/05 06:27:59;;;;;;;;;;;;;;;;;;5066440;28;1886;-64
2021/04/05 06:30:34;;;;;;;;;;;;;;;;;;5066455;28;922;-66
2021/04/05 06:33:20;;;;;;;;;;;;;;;;;;5066856;28;819;-66
2021/04/05 06:36:04;;;;;;;;;;;;;;;;;;5067104;28;865;-67
2021/04/05 06:38:38;;;;;;;;;;;;;;;;;;5066840;28;887;-66
2021/04/05 06:41:22;;;;;;;;;;;;;;;;;;5066931;28;827;-66
2021/04/05 06:43:57;;;;;;;;;;;;;;;;;;5067398;28;895;-67
2021/04/05 06:46:22;;;;;;;;;;;;;;;;;;5067509;28;862;-66
2021/04/05 06:48:51;;;;;;;;;;;;;;;;;;5066702;28;1914;-66
2021/04/05 06:51:35;;;;;;;;;;;;;;;;;;5066409;28;945;-66
2021/04/05 06:54:19;;;;;;;;;;;;;;;;;;5055772;28;1124;-66
2021/04/05 06:56:44;;;;;;;;;;;;;;;;;;5046080;28;831;-67
2021/04/05 06:59:25;;;;;;;;;;;;;;;;;;5046529;28;838;-68
2021/04/05 07:02:23;;;;;;;;;;;;;;;;;;5047891;28;839;-66
2021/04/05 07:05:08;;;;;;;;;;;;;;;;;;5013536;28;1576;-66
2021/04/05 07:07:36;;;;;;;;;;;;;;;;;;5046655;28;1890;-67
2021/04/05 07:10:09;;;;;;;;;;;;;;;;;;5047117;28;906;-67
2021/04/05 07:12:53;;;;;;;;;;;;;;;;;;5046017;28;920;-65
2021/04/05 07:15:23;;;;;;;;;;;;;;;;;;5047541;28;839;-66
2021/04/05 07:17:56;;;;;;;;;;;;;;;;;;5047968;28;850;-65
2021/04/05 07:20:25;;;;;;;;;;;;;;;;;;5051125;28;843;-64
2021/04/05 07:23:11;;;;;;;;;;;;;;;;;;5050720;28;929;-64
2021/04/05 07:25:42;;;;;;;;;;;;;;;;;;5050058;28;907;-64
2021/04/05 07:28:20;;;;;;;;;;;;;;;;;;5050299;28;1894;-65
2021/04/05 07:30:45;;;;;;;;;;;;;;;;;;5049861;28;842;-64
2021/04/05 07:33:22;;;;;;;;;;;;;;;;;;5049772;28;862;-64
2021/04/05 07:36:02;;;;;;;;;;;;;;;;;;5050174;28;885;-65
2021/04/05 07:38:30;;;;;;;;;;;;;;;;;;5049473;28;851;-64
2021/04/05 07:41:14;;;;;;;;;;;;;;;;;;5049534;28;835;-65
2021/04/05 07:43:49;;;;;;;;;;;;;;;;;;5049841;28;933;-64
2021/04/05 07:46:17;;;;;;;;;;;;;;;;;;5050556;28;1010;-66
2021/04/05 07:48:49;;;;;;;;;;;;;;;;;;5050918;28;1898;-61
2021/04/05 07:51:16;;;;;;;;;;;;;;;;;;5050285;28;1078;-62
2021/04/05 07:53:51;;;;;;;;;;;;;;;;;;5057690;28;1172;-62
2021/04/05 07:56:31;;;;;;;;;;;;;;;;;;5069699;28;906;-61
2021/04/05 07:58:56;;;;;;;;;;;;;;;;;;5069735;28;942;-60
2021/04/05 08:01:29;;;;;;;;;;;;;;;;;;5070354;28;855;-61
2021/04/05 08:04:13;;;;;;;;;;;;;;;;;;5069433;28;843;-62
2021/04/05 08:06:44;;;;;;;;;;;;;;;;;;5069634;28;831;-61
2021/04/05 08:09:11;;;;;;;;;;;;;;;;;;5069269;28;1957;-60
2021/04/05 08:11:55;;;;;;;;;;;;;;;;;;5068922;28;831;-63
2021/04/05 08:14:38;;;;;;;;;;;;;;;;;;5069655;28;879;-64
2021/04/05 08:17:22;;;;;;;;;;;;;;;;;;5069244;28;819;-64
2021/04/05 08:19:55;;;;;;;;;;;;;;;;;;5069634;28;1388;-60
2021/04/05 08:22:45;;;;;;;;;;;;;;;;;;5070061;28;961;-67
2021/04/05 08:26:02;;;;;;;;;;;;;;;;;;5069530;28;795;-66
2021/04/05 08:28:18;;;;;;;;;;;;;;;;;;5067276;28;1975;-65
2021/04/05 08:31:10;;;;;;;;;;;;;;;;;;5068046;28;836;-63
2021/04/05 08:33:54;;;;;;;;;;;;;;;;;;5060330;28;1466;-66
2021/04/05 08:36:38;;;;;;;;;;;;;;;;;;5069588;28;736;-66
2021/04/05 08:39:03;;;;;;;;;;;;;;;;;;5068835;28;894;-66
2021/04/05 08:41:37;;;;;;;;;;;;;;;;;;5069415;28;904;-66
2021/04/05 08:44:09;;;;;;;;;;;;;;;;;;5068585;28;874;-61
2021/04/05 08:46:35;;;;;;;;;;;;;;;;;;5068704;28;897;-61
2021/04/05 08:49:02;;;;;;;;;;;;;;;;;;5068843;28;1917;-61
2021/04/05 08:51:34;;;;;;;;;;;;;;;;;;5068560;28;890;-61
2021/04/05 08:54:01;;;;;;;;;;;;;;;;;;5057462;28;1086;-62
2021/04/05 08:56:30;;;;;;;;;;;;;;;;;;5048568;28;854;-62
2021/04/05 08:58:56;;;;;;;;;;;;;;;;;;5048591;28;803;-61
2021/04/05 09:01:26;;;;;;;;;;;;;;;;;;5049103;28;851;-59
2021/04/05 09:03:53;;;;;;;;;;;;;;;;;;5049176;28;893;-59
2021/04/05 09:06:23;;;;;;;;;;;;;;;;;;5049481;28;878;-59
2021/04/05 09:08:49;;;;;;;;;;;;;;;;;;5048548;28;1894;-61
2021/04/05 09:11:15;;;;;;;;;;;;;;;;;;5048206;28;858;-62
2021/04/05 09:13:49;;;;;;;;;;;;;;;;;;5048192;28;807;-60
2021/04/05 09:16:33;;;;;;;;;;;;;;;;;;5048121;28;894;-61
2021/04/05 09:19:17;;;;;;;;;;;;;;;;;;5047868;28;897;-61
2021/04/05 09:21:42;;;;;;;;;;;;;;;;;;5047661;28;851;-60
2021/04/05 09:24:22;;;;;;;;;;;;;;;;;;5047644;28;728;-62
2021/04/05 09:26:55;;;;;;;;;;;;;;;;;;5046688;28;895;-60
2021/04/05 09:29:27;;;;;;;;;;;;;;;;;;5044597;28;1965;-61
2021/04/05 09:32:00;;;;;;;;;;;;;;;;;;5038335;28;1738;-63
2021/04/05 09:34:25;;;;;;;;;;;;;;;;;;5035369;28;1639;-64
2021/04/05 09:36:51;;;;;;;;;;;;;;;;;;5027733;28;823;-63
2021/04/05 09:39:19;;;;;;;;;;;;;;;;;;5045327;28;1812;-63
2021/04/05 09:41:44;;;;;;;;;;;;;;;;;;5046108;28;963;-63
2021/04/05 09:44:28;;;;;;;;;;;;;;;;;;5044543;28;1969;-63
2021/04/05 09:47:02;;;;;;;;;;;;;;;;;;5046474;28;1654;-66
2021/04/05 09:49:51;;;;;;;;;;;;;;;;;;5046229;28;1905;-63
2021/04/05 09:52:29;;;;;;;;;;;;;;;;;;5046334;28;831;-63
2021/04/05 09:55:31;;;;;;;;;;;;;;;;;;5063788;28;1087;-63
2021/04/05 09:58:10;;;;;;;;;;;;;;;;;;5043318;28;1286;-62
2021/04/05 10:00:38;;;;;;;;;;;;;;;;;;5063626;28;1051;-63
2021/04/05 10:03:03;;;;;;;;;;;;;;;;;;5065069;28;1765;-63
2021/04/05 10:05:29;;;;;;;;;;;;;;;;;;5046003;28;882;-63
2021/04/05 10:07:55;;;;;;;;;;;;;;;;;;5045691;28;1978;-64
2021/04/05 10:10:23;;;;;;;;;;;;;;;;;;5045979;28;831;-64
2021/04/05 10:12:50;;;;;;;;;;;;;;;;;;5046983;28;898;-63
2021/04/05 10:15:16;;;;;;;;;;;;;;;;;;5045554;28;848;-63
2021/04/05 10:17:47;;;;;;;;;;;;;;;;;;5045750;28;874;-64
2021/04/05 10:20:13;;;;;;;;;;;;;;;;;;5045888;28;800;-62
2021/04/05 10:22:41;;;;;;;;;;;;;;;;;;5045157;28;810;-62
2021/04/05 10:25:07;;;;;;;;;;;;;;;;;;5044896;28;808;-62
2021/04/05 10:27:33;;;;;;;;;;;;;;;;;;5046499;28;1890;-62
2021/04/05 10:30:00;;;;;;;;;;;;;;;;;;5047000;28;820;-62
2021/04/05 10:32:27;;;;;;;;;;;;;;;;;;5046703;28;926;-62
2021/04/05 10:34:57;;;;;;;;;;;;;;;;;;5047564;28;803;-62
2021/04/05 10:37:32;;;;;;;;;;;;;;;;;;5045243;28;1631;-63
2021/04/05 10:39:59;;;;;;;;;;;;;;;;;;5026292;28;839;-62
2021/04/05 10:42:26;;;;;;;;;;;;;;;;;;5026467;28;878;-63
2021/04/05 10:44:57;;;;;;;;;;;;;;;;;;5027172;28;843;-62
2021/04/05 10:47:30;;;;;;;;;;;;;;;;;;5026956;28;1898;-63
2021/04/05 10:49:56;;;;;;;;;;;;;;;;;;5026547;28;867;-62
2021/04/05 10:52:42;;;;;;;;;;;;;;;;;;5027406;28;835;-63
2021/04/05 10:55:28;;;;;;;;;;;;;;;;;;5030415;28;1072;-64
2021/04/05 10:57:59;;;;;;;;;;;;;;;;;;5030396;28;899;-63
2021/04/05 11:00:46;;;;;;;;;;;;;;;;;;5030222;28;855;-63
2021/04/05 11:03:17;;;;;;;;;;;;;;;;;;5030860;28;867;-63
2021/04/05 11:05:43;;;;;;;;;;;;;;;;;;5030237;28;831;-62
2021/04/05 11:08:10;;;;;;;;;;;;;;;;;;5029524;28;1974;-62
2021/04/05 11:10:36;;;;;;;;;;;;;;;;;;5030142;28;808;-62
2021/04/05 11:13:06;;;;;;;;;;;;;;;;;;5029934;28;795;-62
2021/04/05 11:15:32;;;;;;;;;;;;;;;;;;5030066;28;835;-62
2021/04/05 11:18:01;;;;;;;;;;;;;;;;;;5030495;28;819;-62
2021/04/05 11:20:29;;;;;;;;;;;;;;;;;;5030648;28;870;-63
2021/04/05 11:23:01;;;;;;;;;;;;;;;;;;5029505;28;825;-64
2021/04/05 11:25:30;;;;;;;;;;;;;;;;;;5029503;28;894;-63
2021/04/05 11:28:00;;;;;;;;;;;;;;;;;;5030194;28;1902;-62
2021/04/05 11:30:27;;;;;;;;;;;;;;;;;;5029599;28;918;-64
2021/04/05 11:32:53;;;;;;;;;;;;;;;;;;5051571;28;1028;-63
2021/04/05 11:35:28;;;;;;;;;;;;;;;;;;5050918;28;867;-64
2021/04/05 11:37:54;;;;;;;;;;;;;;;;;;5049114;28;831;-62
2021/04/05 11:40:26;;;;;;;;;;;;;;;;;;5049836;28;890;-64
2021/04/05 11:42:52;;;;;;;;;;;;;;;;;;5050095;28;922;-66
2021/04/05 11:45:29;;;;;;;;;;;;;;;;;;5050458;28;974;-64
2021/04/05 11:47:55;;;;;;;;;;;;;;;;;;5049513;28;1922;-66
2021/04/05 11:50:22;;;;;;;;;;;;;;;;;;5050624;28;803;-67
2021/04/05 11:52:51;;;;;;;;;;;;;;;;;;5050596;28;1094;-64
2021/04/05 11:55:29;;;;;;;;;;;;;;;;;;5061538;28;850;-63
2021/04/05 11:58:02;;;;;;;;;;;;;;;;;;5049786;28;675;-64
2021/04/05 12:00:29;;;;;;;;;;;;;;;;;;5049862;28;866;-64
2021/04/05 12:03:18;;;;;;;;;;;;;;;;;;5048865;28;824;-64
2021/04/05 12:05:46;;;;;;;;;;;;;;;;;;5043329;28;1144;-63
2021/04/05 12:08:12;;;;;;;;;;;;;;;;;;5049496;28;2360;-64
2021/04/05 12:10:38;;;;;;;;;;;;;;;;;;5048955;28;835;-63
2021/04/05 12:13:18;;;;;;;;;;;;;;;;;;5049021;28;635;-63
2021/04/05 12:15:46;;;;;;;;;;;;;;;;;;5048861;28;871;-64
2021/04/05 12:18:12;;;;;;;;;;;;;;;;;;5049922;28;844;-64
2021/04/05 12:20:38;;;;;;;;;;;;;;;;;;5049193;28;922;-63
2021/04/05 12:23:07;;;;;;;;;;;;;;;;;;5049538;28;863;-64
2021/04/05 12:25:34;;;;;;;;;;;;;;;;;;5049271;28;879;-63
2021/04/05 12:28:01;;;;;;;;;;;;;;;;;;5049080;28;1978;-64
2021/04/05 12:30:28;;;;;;;;;;;;;;;;;;5039423;28;2553;-63
2021/04/05 12:32:54;;;;;;;;;;;;;;;;;;5045467;28;898;-64
2021/04/05 12:35:23;;;;;;;;;;;;;;;;;;5050299;28;854;-64
2021/04/05 12:38:05;;;;;;;;;;;;;;;;;;5049720;28;839;-63
2021/04/05 12:40:35;;;;;;;;;;;;;;;;;;5048577;28;898;-64
2021/04/05 12:43:03;;;;;;;;;;;;;;;;;;5049284;28;842;-63
2021/04/05 12:45:29;;;;;;;;;;;;;;;;;;5048643;28;847;-64
2021/04/05 12:47:56;;;;;;;;;;;;;;;;;;5048524;28;1918;-64
2021/04/05 12:50:23;;;;;;;;;;;;;;;;;;5049482;28;902;-64
2021/04/05 12:52:49;;;;;;;;;;;;;;;;;;5050274;28;1051;-64
2021/04/05 12:55:18;;;;;;;;;;;;;;;;;;5068257;28;882;-64
2021/04/05 12:57:43;;;;;;;;;;;;;;;;;;5068267;28;965;-64
2021/04/05 13:00:12;;;;;;;;;;;;;;;;;;5068557;28;831;-64
2021/04/05 13:02:38;;;;;;;;;;;;;;;;;;5067938;28;898;-64
2021/04/05 13:05:20;;;;;;;;;;;;;;;;;;5067805;28;827;-64
2021/04/05 13:07:45;;;;;;;;;;;;;;;;;;5068423;28;1905;-64
2021/04/05 13:10:17;;;;;;;;;;;;;;;;;;5068078;28;818;-63
2021/04/05 13:12:56;;;;;;;;;;;;;;;;;;5067791;28;839;-63
2021/04/05 13:15:24;;;;;;;;;;;;;;;;;;5068257;28;1044;-63
2021/04/05 13:17:51;;;;;;;;;;;;;;;;;;5068601;28;827;-63
2021/04/05 13:20:19;;;;;;;;;;;;;;;;;;5067811;28;839;-63
2021/04/05 13:22:51;;;;;;;;;;;;;;;;;;5067828;28;851;-63
2021/04/05 13:25:24;;;;;;;;;;;;;;;;;;5068424;28;815;-63
2021/04/05 13:27:50;;;;;;;;;;;;;;;;;;5045580;28;2562;-63
2021/04/05 13:30:17;;;;;;;;;;;;;;;;;;5044574;28;883;-64
2021/04/05 13:32:43;;;;;;;;;;;;;;;;;;5047999;28;871;-63
2021/04/05 13:35:13;;;;;;;;;;;;;;;;;;5047703;28;822;-63
2021/04/05 13:37:49;;;;;;;;;;;;;;;;;;5049958;28;1153;-63
2021/04/05 13:40:20;;;;;;;;;;;;;;;;;;5047594;28;835;-63
2021/04/05 13:42:46;;;;;;;;;;;;;;;;;;5047696;28;851;-64
2021/04/05 13:45:13;;;;;;;;;;;;;;;;;;5047518;28;827;-64
2021/04/05 13:47:44;;;;;;;;;;;;;;;;;;5047612;28;1910;-64
2021/04/05 13:50:10;;;;;;;;;;;;;;;;;;5047698;28;989;-64
2021/04/05 13:52:36;;;;;;;;;;;;;;;;;;5046894;28;1122;-63
2021/04/05 13:55:05;;;;;;;;;;;;;;;;;;5066007;28;1091;-63
2021/04/05 13:57:42;;;;;;;;;;;;;;;;;;5067740;28;1019;-64
2021/04/05 14:00:09;;;;;;;;;;;;;;;;;;5067444;28;816;-63
2021/04/05 14:02:39;;;;;;;;;;;;;;;;;;5067231;28;930;-64
2021/04/05 14:05:12;;;;;;;;;;;;;;;;;;5067311;28;846;-63
2021/04/05 14:07:39;;;;;;;;;;;;;;;;;;5066872;28;1894;-63
2021/04/05 14:10:05;;;;;;;;;;;;;;;;;;5066701;28;941;-64
2021/04/05 14:12:33;;;;;;;;;;;;;;;;;;5067072;28;866;-64
2021/04/05 14:14:59;;;;;;;;;;;;;;;;;;5067423;28;863;-64
2021/04/05 14:17:31;;;;;;;;;;;;;;;;;;5067547;28;918;-62
2021/04/05 14:20:19;;;;;;;;;;;;;;;;;;5067314;28;823;-63
2021/04/05 14:22:50;;;;;;;;;;;;;;;;;;5067252;28;881;-63
2021/04/05 14:25:22;;;;;;;;;;;;;;;;;;5066374;28;882;-62
2021/04/05 14:27:53;;;;;;;;;;;;;;;;;;5065900;28;1972;-62
2021/04/05 14:30:25;;;;;;;;;;;;;;;;;;5067943;28;831;-62
2021/04/05 14:32:53;;;;;;;;;;;;;;;;;;5067821;28;1159;-63
2021/04/05 14:35:25;;;;;;;;;;;;;;;;;;5067806;28;883;-63
2021/04/05 14:37:54;;;;;;;;;;;;;;;;;;5068077;28;861;-63
2021/04/05 14:40:21;;;;;;;;;;;;;;;;;;5068075;28;901;-63
2021/04/05 14:42:55;;;;;;;;;;;;;;;;;;5067436;28;914;-62
2021/04/05 14:45:22;;;;;;;;;;;;;;;;;;5067774;28;838;-62
2021/04/05 14:47:57;;;;;;;;;;;;;;;;;;5067897;28;1905;-63
2021/04/05 14:50:33;;;;;;;;;;;;;;;;;;5067667;28;803;-64
2021/04/05 14:53:01;;;;;;;;;;;;;;;;;;5064597;28;1109;-64
2021/04/05 14:55:29;;;;;;;;;;;;;;;;;;5047212;28;827;-64
2021/04/05 14:57:55;;;;;;;;;;;;;;;;;;5046381;28;847;-63
2021/04/05 15:00:21;;;;;;;;;;;;;;;;;;5046936;28;922;-63
2021/04/05 15:02:49;;;;;;;;;;;;;;;;;;5046266;28;811;-64
2021/04/05 15:05:15;;;;;;;;;;;;;;;;;;5046664;28;874;-63
2021/04/05 15:07:43;;;;;;;;;;;;;;;;;;5046550;28;1991;-64
2021/04/05 15:10:09;;;;;;;;;;;;;;;;;;5046417;28;854;-63
2021/04/05 15:12:35;;;;;;;;;;;;;;;;;;5047032;28;921;-63
2021/04/05 15:15:02;;;;;;;;;;;;;;;;;;5046437;28;887;-63
2021/04/05 15:17:29;;;;;;;;;;;;;;;;;;5046645;28;870;-63
2021/04/05 15:20:03;;;;;;;;;;;;;;;;;;5046950;28;879;-63
2021/04/05 15:22:30;;;;;;;;;;;;;;;;;;5046844;28;866;-63
2021/04/05 15:24:57;;;;;;;;;;;;;;;;;;5046894;28;883;-61
2021/04/05 15:27:26;;;;;;;;;;;;;;;;;;5047395;28;882;-61
2021/04/05 15:30:11;;;;;;;;;;;;;;;;;;5047563;28;1894;-62
2021/04/05 15:32:43;;;;;;;;;;;;;;;;;;5046816;28;859;-62
2021/04/05 15:35:08;;;;;;;;;;;;;;;;;;5046993;28;871;-62
2021/04/05 15:37:35;;;;;;;;;;;;;;;;;;5047010;28;894;-61
2021/04/05 15:40:01;;;;;;;;;;;;;;;;;;5043543;28;1695;-62
2021/04/05 15:42:27;;;;;;;;;;;;;;;;;;5044249;28;1535;-62
2021/04/05 15:45:01;;;;;;;;;;;;;;;;;;5069833;28;874;-63
2021/04/05 15:47:26;;;;;;;;;;;;;;;;;;5059107;28;1702;-62
2021/04/05 15:50:00;;;;;;;;;;;;;;;;;;5050484;28;1902;-62
2021/04/05 15:52:27;;;;;;;;;;;;;;;;;;5049660;28;1006;-61
2021/04/05 15:54:54;;;;;;;;;;;;;;;;;;5065948;28;1464;-61
2021/04/05 15:57:19;;;;;;;;;;;;;;;;;;5050547;28;626;-61
2021/04/05 15:59:46;;;;;;;;;;;;;;;;;;5049696;28;878;-62
2021/04/05 16:02:20;;;;;;;;;;;;;;;;;;5049698;28;779;-62
2021/04/05 16:04:50;;;;;;;;;;;;;;;;;;5049455;28;891;-62
2021/04/05 16:07:21;;;;;;;;;;;;;;;;;;5049302;28;914;-62
2021/04/05 16:09:49;;;;;;;;;;;;;;;;;;5047028;28;1931;-62
2021/04/05 16:12:22;;;;;;;;;;;;;;;;;;5043708;28;1582;-63
2021/04/05 16:14:50;;;;;;;;;;;;;;;;;;5029375;28;894;-63
2021/04/05 16:17:42;;;;;;;;;;;;;;;;;;5028791;28;940;-63
2021/04/05 16:20:10;;;;;;;;;;;;;;;;;;5020096;28;1493;-62
2021/04/05 16:22:38;;;;;;;;;;;;;;;;;;5028984;28;918;-63
2021/04/05 16:25:06;;;;;;;;;;;;;;;;;;5028606;28;854;-63
2021/04/05 16:27:32;;;;;;;;;;;;;;;;;;5029305;28;1925;-63
2021/04/05 16:30:01;;;;;;;;;;;;;;;;;;5028644;28;887;-63
2021/04/05 16:32:30;;;;;;;;;;;;;;;;;;5028982;28;858;-62
2021/04/05 16:34:58;;;;;;;;;;;;;;;;;;5029164;28;915;-62
2021/04/05 16:37:27;;;;;;;;;;;;;;;;;;5029306;28;760;-63
2021/04/05 16:40:11;;;;;;;;;;;;;;;;;;5028259;28;851;-64
2021/04/05 16:42:45;;;;;;;;;;;;;;;;;;5028766;28;875;-63
2021/04/05 16:45:12;;;;;;;;;;;;;;;;;;5029005;28;843;-63
2021/04/05 16:47:46;;;;;;;;;;;;;;;;;;5043146;28;1905;-63
2021/04/05 16:50:32;;;;;;;;;;;;;;;;;;5046423;28;1231;-62
2021/04/05 16:53:07;;;;;;;;;;;;;;;;;;5050086;28;1393;-63
2021/04/05 16:55:34;;;;;;;;;;;;;;;;;;5067825;28;886;-62
2021/04/05 16:58:12;;;;;;;;;;;;;;;;;;5068395;28;873;-62
2021/04/05 17:00:46;;;;;;;;;;;;;;;;;;5068478;28;874;-62
2021/04/05 17:03:23;;;;;;;;;;;;;;;;;;5068523;28;794;-62
2021/04/05 17:05:53;;;;;;;;;;;;;;;;;;5068148;28;847;-62
2021/04/05 17:08:22;;;;;;;;;;;;;;;;;;5069121;28;1964;-62
2021/04/05 17:10:50;;;;;;;;;;;;;;;;;;5069176;28;1013;-62
2021/04/05 17:13:21;;;;;;;;;;;;;;;;;;5066538;28;1183;-62
2021/04/05 17:15:47;;;;;;;;;;;;;;;;;;5068220;28;827;-63
2021/04/05 17:18:18;;;;;;;;;;;;;;;;;;5068742;28;898;-62
2021/04/05 17:20:55;;;;;;;;;;;;;;;;;;5068128;28;906;-61
2021/04/05 17:23:21;;;;;;;;;;;;;;;;;;5068575;28;831;-61
2021/04/05 17:25:49;;;;;;;;;;;;;;;;;;5068175;28;959;-61
2021/04/05 17:28:20;;;;;;;;;;;;;;;;;;5067637;28;1909;-61
2021/04/05 17:30:49;;;;;;;;;;;;;;;;;;5067474;28;874;-60
2021/04/05 17:33:14;;;;;;;;;;;;;;;;;;5067452;28;819;-61
2021/04/05 17:35:42;;;;;;;;;;;;;;;;;;5066889;28;917;-60
2021/04/05 17:38:10;;;;;;;;;;;;;;;;;;5067385;28;902;-61
2021/04/05 17:41:01;;;;;;;;;;;;;;;;;;5067368;28;827;-60